Gardiner, Montana
Current Conditions -  °F | °C
As of 11:55 PM on Wednesday 22 Oct 2014 (Local Time) from KWYS Reporting Station
Clear Clear  
Wind Chill: 27°   Ceiling: Unl
Heat Index: 27°   Visibility: 10mi
Dew Point: 25°   Wind: 3mph
Humidity: 93%   Direction: 80°E
Pressure: 30.18"   Gusts: NA
Location:  45.03°N, 110.72°W
Report Text: KWYS 230555Z AUTO 08003KT 10SM CLR M03/M04 A3018 RMK AO2
Loading
Personal Weather Stations






























Interactive Weather Map
Tropical Storm Tracking
New forecast layout! Learn more

10-Day Weather Forecast

Advertisements
Track Severe Weather on mobile